RYR2PA LDZD-EPWR
Flight info
| Callsign | RYR2PA |
|---|---|
| Flight time | 1h 10m |
| Altitude | 39000 |
| Route | RAVNA L607 ULPIN DCT LAPNA DCT LEDVA DCT REGLI L617 EPOPA |
| Aircraft | B38M/M-SADE3FGILRWY/SB1 |
Departure
| Time | 2026-05-05 18:49 |
|---|---|
| Airport | Zadar Airport (LDZD) |
Arrival
| Time | 2026-05-05 19:59 |
|---|---|
| Airport | Copernicus Wrocław Airport (EPWR) |
| Time | Latitude | Longitude | Altitude | Speed | Heading |
|---|---|---|---|---|---|
| 2026-05-05 18:26 | 44.09606 | 15.35437 | 281 ft | 0 kts | 326° |
| 2026-05-05 18:41 | 44.09589 | 15.35453 | 279 ft | 4 kts | 326° |
| 2026-05-05 18:41 | 44.09566 | 15.35474 | 284 ft | 4 kts | 326° |
| 2026-05-05 18:41 | 44.09543 | 15.35495 | 280 ft | 4 kts | 326° |
| 2026-05-05 18:41 | 44.09532 | 15.35505 | 281 ft | 0 kts | 326° |
| 2026-05-05 18:46 | 44.09533 | 15.35504 | 281 ft | 1 kts | 327° |
| 2026-05-05 18:46 | 44.09554 | 15.35504 | 285 ft | 7 kts | 17° |
| 2026-05-05 18:46 | 44.09631 | 15.35536 | 279 ft | 16 kts | 11° |
| 2026-05-05 18:47 | 44.09755 | 15.35538 | 279 ft | 19 kts | 358° |
| 2026-05-05 18:47 | 44.09879 | 15.35530 | 281 ft | 12 kts | 8° |
| 2026-05-05 18:47 | 44.09943 | 15.35595 | 286 ft | 12 kts | 46° |
| 2026-05-05 18:47 | 44.10009 | 15.35691 | 284 ft | 13 kts | 46° |
| 2026-05-05 18:48 | 44.10079 | 15.35682 | 285 ft | 16 kts | 315° |
| 2026-05-05 18:48 | 44.10274 | 15.35420 | 283 ft | 77 kts | 316° |
| 2026-05-05 18:48 | 44.10855 | 15.34636 | 283 ft | 153 kts | 316° |
| 2026-05-05 18:48 | 44.11721 | 15.33486 | 732 ft | 178 kts | 318° |
| 2026-05-05 18:49 | 44.12634 | 15.32293 | 1623 ft | 184 kts | 316° |
| 2026-05-05 18:49 | 44.13255 | 15.31468 | 2161 ft | 190 kts | 317° |
| 2026-05-05 18:49 | 44.14267 | 15.30140 | 2735 ft | 211 kts | 315° |
| 2026-05-05 18:49 | 44.15406 | 15.28642 | 3263 ft | 238 kts | 315° |
| 2026-05-05 18:50 | 44.16664 | 15.26985 | 3939 ft | 256 kts | 315° |
| 2026-05-05 18:50 | 44.18058 | 15.25326 | 4792 ft | 268 kts | 320° |
| 2026-05-05 18:50 | 44.19499 | 15.23725 | 6014 ft | 263 kts | 319° |
| 2026-05-05 18:50 | 44.20941 | 15.22113 | 6998 ft | 268 kts | 319° |
| 2026-05-05 18:51 | 44.22399 | 15.20477 | 7989 ft | 270 kts | 318° |
| 2026-05-05 18:51 | 44.23875 | 15.18821 | 8963 ft | 274 kts | 317° |
| 2026-05-05 18:51 | 44.25368 | 15.17142 | 9936 ft | 277 kts | 317° |
| 2026-05-05 18:51 | 44.26897 | 15.15422 | 10603 ft | 291 kts | 317° |
| 2026-05-05 18:52 | 44.28517 | 15.13599 | 11122 ft | 307 kts | 317° |
| 2026-05-05 18:52 | 44.30205 | 15.11697 | 11812 ft | 315 kts | 318° |
| 2026-05-05 18:52 | 44.31915 | 15.09769 | 12730 ft | 317 kts | 318° |
| 2026-05-05 18:52 | 44.33647 | 15.07815 | 13585 ft | 322 kts | 318° |
| 2026-05-05 18:53 | 44.35399 | 15.05837 | 14381 ft | 326 kts | 318° |
| 2026-05-05 18:53 | 44.37171 | 15.03833 | 15135 ft | 330 kts | 318° |
| 2026-05-05 18:53 | 44.38966 | 15.01802 | 15899 ft | 334 kts | 318° |
| 2026-05-05 18:53 | 44.40783 | 14.99745 | 16643 ft | 338 kts | 318° |
| 2026-05-05 18:54 | 44.42623 | 14.97661 | 17385 ft | 342 kts | 318° |
| 2026-05-05 18:54 | 44.44481 | 14.95552 | 18105 ft | 346 kts | 318° |
| 2026-05-05 18:54 | 44.46360 | 14.93419 | 18757 ft | 350 kts | 318° |
| 2026-05-05 18:54 | 44.48257 | 14.91263 | 19393 ft | 352 kts | 318° |
| 2026-05-05 18:55 | 44.50166 | 14.89092 | 20029 ft | 355 kts | 318° |
| 2026-05-05 18:55 | 44.52091 | 14.86903 | 20650 ft | 358 kts | 318° |
| 2026-05-05 18:55 | 44.54007 | 14.84667 | 21260 ft | 360 kts | 317° |
| 2026-05-05 18:55 | 44.55935 | 14.82398 | 21862 ft | 363 kts | 317° |
| 2026-05-05 18:56 | 44.57877 | 14.80114 | 22457 ft | 366 kts | 317° |
| 2026-05-05 18:56 | 44.59835 | 14.77811 | 23041 ft | 369 kts | 317° |
| 2026-05-05 18:56 | 44.61782 | 14.75518 | 23602 ft | 372 kts | 317° |
| 2026-05-05 18:56 | 44.63770 | 14.73177 | 24079 ft | 375 kts | 317° |
| 2026-05-05 18:57 | 44.65773 | 14.70814 | 24559 ft | 377 kts | 316° |
| 2026-05-05 18:57 | 44.67877 | 14.68591 | 25011 ft | 383 kts | 327° |
| 2026-05-05 18:57 | 44.70394 | 14.67261 | 25523 ft | 393 kts | 345° |
| 2026-05-05 18:57 | 44.73150 | 14.67070 | 25984 ft | 404 kts | 2° |
| 2026-05-05 18:58 | 44.75917 | 14.68000 | 26433 ft | 413 kts | 14° |
| 2026-05-05 18:58 | 44.78662 | 14.69233 | 26845 ft | 416 kts | 13° |
| 2026-05-05 18:58 | 44.81436 | 14.70476 | 27262 ft | 420 kts | 13° |
| 2026-05-05 18:58 | 44.84220 | 14.71744 | 27671 ft | 423 kts | 13° |
| 2026-05-05 18:59 | 44.87027 | 14.73031 | 28072 ft | 425 kts | 13° |
| 2026-05-05 18:59 | 44.89850 | 14.74329 | 28470 ft | 428 kts | 13° |
| 2026-05-05 18:59 | 44.92694 | 14.75639 | 28861 ft | 431 kts | 14° |
| 2026-05-05 18:59 | 44.95556 | 14.76958 | 29245 ft | 434 kts | 14° |
| 2026-05-05 19:00 | 44.98435 | 14.78287 | 29624 ft | 437 kts | 13° |
| 2026-05-05 19:00 | 45.01337 | 14.79628 | 29992 ft | 440 kts | 14° |
| 2026-05-05 19:00 | 45.04255 | 14.80977 | 30310 ft | 443 kts | 14° |
| 2026-05-05 19:00 | 45.07179 | 14.82331 | 30623 ft | 445 kts | 14° |
| 2026-05-05 19:01 | 45.10135 | 14.83701 | 30948 ft | 447 kts | 13° |
| 2026-05-05 19:01 | 45.13095 | 14.85075 | 31256 ft | 449 kts | 13° |
| 2026-05-05 19:01 | 45.16074 | 14.86459 | 31587 ft | 451 kts | 13° |
| 2026-05-05 19:01 | 45.19058 | 14.87847 | 31893 ft | 453 kts | 13° |
| 2026-05-05 19:02 | 45.22068 | 14.89249 | 32215 ft | 456 kts | 13° |
| 2026-05-05 19:02 | 45.25085 | 14.90655 | 32521 ft | 458 kts | 13° |
| 2026-05-05 19:02 | 45.28113 | 14.92068 | 32822 ft | 460 kts | 14° |
| 2026-05-05 19:02 | 45.31160 | 14.93491 | 33121 ft | 462 kts | 13° |
| 2026-05-05 19:03 | 45.34221 | 14.94923 | 33401 ft | 464 kts | 14° |
| 2026-05-05 19:03 | 45.37298 | 14.96364 | 33707 ft | 466 kts | 14° |
| 2026-05-05 19:03 | 45.40383 | 14.97810 | 33986 ft | 468 kts | 14° |
| 2026-05-05 19:03 | 45.43476 | 14.99262 | 34289 ft | 468 kts | 14° |
| 2026-05-05 19:04 | 45.46559 | 15.00712 | 34644 ft | 467 kts | 14° |
| 2026-05-05 19:04 | 45.49644 | 15.02162 | 34944 ft | 466 kts | 14° |
| 2026-05-05 19:04 | 45.52719 | 15.03611 | 35264 ft | 466 kts | 15° |
| 2026-05-05 19:04 | 45.55795 | 15.05060 | 35589 ft | 465 kts | 15° |
| 2026-05-05 19:05 | 45.58861 | 15.06508 | 35903 ft | 464 kts | 15° |
| 2026-05-05 19:05 | 45.61930 | 15.07958 | 36218 ft | 464 kts | 15° |
| 2026-05-05 19:05 | 45.64990 | 15.09406 | 36516 ft | 463 kts | 15° |
| 2026-05-05 19:05 | 45.68051 | 15.10856 | 36787 ft | 463 kts | 15° |
| 2026-05-05 19:06 | 45.71109 | 15.12306 | 37076 ft | 462 kts | 15° |
| 2026-05-05 19:06 | 45.74160 | 15.13754 | 37347 ft | 462 kts | 15° |
| 2026-05-05 19:06 | 45.77213 | 15.15205 | 37585 ft | 462 kts | 15° |
| 2026-05-05 19:06 | 45.80261 | 15.16655 | 37851 ft | 461 kts | 15° |
| 2026-05-05 19:07 | 45.83307 | 15.18106 | 38110 ft | 461 kts | 16° |
| 2026-05-05 19:07 | 45.86346 | 15.19555 | 38356 ft | 460 kts | 16° |
| 2026-05-05 19:07 | 45.89384 | 15.21006 | 38582 ft | 460 kts | 16° |
| 2026-05-05 19:07 | 45.92425 | 15.22460 | 38781 ft | 460 kts | 16° |
| 2026-05-05 19:08 | 45.95454 | 15.23909 | 38939 ft | 460 kts | 16° |
| 2026-05-05 19:08 | 45.98496 | 15.25367 | 38981 ft | 460 kts | 16° |
| 2026-05-05 19:08 | 46.04554 | 15.28275 | 38980 ft | 460 kts | 16° |
| 2026-05-05 19:09 | 46.10668 | 15.31216 | 38968 ft | 467 kts | 16° |
| 2026-05-05 19:09 | 46.16839 | 15.34192 | 38961 ft | 468 kts | 16° |
| 2026-05-05 19:10 | 46.23017 | 15.37178 | 38947 ft | 467 kts | 16° |
| 2026-05-05 19:10 | 46.29173 | 15.40162 | 38934 ft | 467 kts | 15° |
| 2026-05-05 19:11 | 46.35284 | 15.43130 | 38919 ft | 465 kts | 16° |
| 2026-05-05 19:11 | 46.41467 | 15.46138 | 38918 ft | 466 kts | 15° |
| 2026-05-05 19:12 | 46.47566 | 15.49114 | 38917 ft | 465 kts | 15° |
| 2026-05-05 19:12 | 46.53680 | 15.52165 | 38912 ft | 466 kts | 18° |
| 2026-05-05 19:13 | 46.59725 | 15.55564 | 38914 ft | 465 kts | 18° |
| 2026-05-05 19:13 | 46.65780 | 15.58927 | 38918 ft | 466 kts | 18° |
| 2026-05-05 19:14 | 46.71838 | 15.62295 | 38907 ft | 467 kts | 18° |
| 2026-05-05 19:14 | 46.77914 | 15.65682 | 38895 ft | 468 kts | 18° |
| 2026-05-05 19:15 | 46.83997 | 15.69081 | 38892 ft | 469 kts | 18° |
| 2026-05-05 19:15 | 46.90088 | 15.72491 | 38889 ft | 469 kts | 18° |
| 2026-05-05 19:16 | 46.96169 | 15.75905 | 38887 ft | 468 kts | 18° |
| 2026-05-05 19:16 | 47.02258 | 15.79332 | 38885 ft | 469 kts | 18° |
| 2026-05-05 19:17 | 47.08352 | 15.82770 | 38889 ft | 469 kts | 18° |
| 2026-05-05 19:17 | 47.14427 | 15.86205 | 38884 ft | 467 kts | 18° |
| 2026-05-05 19:18 | 47.20481 | 15.89638 | 38878 ft | 466 kts | 18° |
| 2026-05-05 19:18 | 47.26482 | 15.93048 | 38867 ft | 465 kts | 18° |
| 2026-05-05 19:19 | 47.32512 | 15.96483 | 38861 ft | 464 kts | 18° |
| 2026-05-05 19:19 | 47.38529 | 15.99918 | 38854 ft | 464 kts | 18° |
| 2026-05-05 19:20 | 47.44537 | 16.03358 | 38844 ft | 463 kts | 18° |
| 2026-05-05 19:20 | 47.50550 | 16.06809 | 38835 ft | 464 kts | 18° |
| 2026-05-05 19:21 | 47.56572 | 16.10274 | 38827 ft | 464 kts | 18° |
| 2026-05-05 19:21 | 47.62588 | 16.13743 | 38816 ft | 464 kts | 18° |
| 2026-05-05 19:22 | 47.68612 | 16.17226 | 38802 ft | 465 kts | 18° |
| 2026-05-05 19:22 | 47.74635 | 16.20717 | 38795 ft | 465 kts | 19° |
| 2026-05-05 19:23 | 47.80663 | 16.24219 | 38780 ft | 465 kts | 19° |
| 2026-05-05 19:23 | 47.86698 | 16.27735 | 38781 ft | 466 kts | 19° |
| 2026-05-05 19:24 | 47.92731 | 16.31258 | 38774 ft | 466 kts | 19° |
| 2026-05-05 19:24 | 47.98771 | 16.34794 | 38762 ft | 466 kts | 19° |
| 2026-05-05 19:25 | 48.04811 | 16.38338 | 38762 ft | 466 kts | 19° |
| 2026-05-05 19:25 | 48.10850 | 16.41892 | 38774 ft | 466 kts | 19° |
| 2026-05-05 19:26 | 48.16886 | 16.45452 | 38771 ft | 467 kts | 19° |
| 2026-05-05 19:26 | 48.22928 | 16.49025 | 38773 ft | 467 kts | 19° |
| 2026-05-05 19:27 | 48.28924 | 16.52580 | 38767 ft | 467 kts | 19° |
| 2026-05-05 19:27 | 48.34963 | 16.56170 | 38764 ft | 467 kts | 19° |
| 2026-05-05 19:28 | 48.41002 | 16.59768 | 38779 ft | 467 kts | 19° |
| 2026-05-05 19:28 | 48.47042 | 16.63377 | 38763 ft | 467 kts | 19° |
| 2026-05-05 19:29 | 48.53080 | 16.66994 | 38771 ft | 467 kts | 19° |
| 2026-05-05 19:29 | 48.59124 | 16.70621 | 38770 ft | 468 kts | 19° |
| 2026-05-05 19:30 | 48.65174 | 16.74261 | 38770 ft | 468 kts | 19° |
| 2026-05-05 19:30 | 48.71222 | 16.77910 | 38773 ft | 468 kts | 19° |
| 2026-05-05 19:31 | 48.74163 | 16.80048 | 38769 ft | 470 kts | 30° |
| 2026-05-05 19:31 | 48.76962 | 16.82608 | 38772 ft | 471 kts | 28° |
| 2026-05-05 19:31 | 48.82598 | 16.87673 | 38780 ft | 471 kts | 29° |
| 2026-05-05 19:32 | 48.88241 | 16.92771 | 38780 ft | 471 kts | 29° |
| 2026-05-05 19:32 | 48.93871 | 16.97873 | 38786 ft | 472 kts | 29° |
| 2026-05-05 19:33 | 48.99509 | 17.02996 | 38792 ft | 472 kts | 29° |
| 2026-05-05 19:33 | 49.05142 | 17.08128 | 38794 ft | 472 kts | 29° |
| 2026-05-05 19:34 | 49.10771 | 17.13269 | 38791 ft | 471 kts | 29° |
| 2026-05-05 19:35 | 49.19159 | 17.20956 | 38794 ft | 468 kts | 29° |
| 2026-05-05 19:35 | 49.24746 | 17.26093 | 38797 ft | 469 kts | 30° |
| 2026-05-05 19:36 | 49.29393 | 17.30377 | 38797 ft | 469 kts | 30° |
| 2026-05-05 19:36 | 49.34979 | 17.35539 | 38797 ft | 469 kts | 30° |
| 2026-05-05 19:37 | 49.40559 | 17.40709 | 38800 ft | 468 kts | 30° |
| 2026-05-05 19:37 | 49.46107 | 17.45863 | 38296 ft | 464 kts | 30° |
| 2026-05-05 19:37 | 49.48861 | 17.48428 | 37489 ft | 465 kts | 30° |
| 2026-05-05 19:38 | 49.51637 | 17.51015 | 36711 ft | 465 kts | 30° |
| 2026-05-05 19:38 | 49.54409 | 17.53602 | 35973 ft | 466 kts | 30° |
| 2026-05-05 19:38 | 49.57176 | 17.56189 | 35260 ft | 466 kts | 30° |
| 2026-05-05 19:38 | 49.59949 | 17.58784 | 34573 ft | 465 kts | 30° |
| 2026-05-05 19:39 | 49.62708 | 17.61369 | 33898 ft | 465 kts | 30° |
| 2026-05-05 19:39 | 49.65473 | 17.63964 | 33145 ft | 464 kts | 30° |
| 2026-05-05 19:39 | 49.68225 | 17.66549 | 32403 ft | 463 kts | 30° |
| 2026-05-05 19:39 | 49.70980 | 17.69142 | 31674 ft | 462 kts | 30° |
| 2026-05-05 19:40 | 49.73722 | 17.71726 | 30971 ft | 462 kts | 30° |
| 2026-05-05 19:40 | 49.76463 | 17.74312 | 30275 ft | 461 kts | 30° |
| 2026-05-05 19:40 | 49.79185 | 17.76884 | 29555 ft | 460 kts | 30° |
| 2026-05-05 19:40 | 49.81927 | 17.79477 | 28768 ft | 459 kts | 30° |
| 2026-05-05 19:41 | 49.84646 | 17.82053 | 28012 ft | 458 kts | 31° |
| 2026-05-05 19:41 | 49.87362 | 17.84629 | 27271 ft | 457 kts | 31° |
| 2026-05-05 19:41 | 49.90072 | 17.87202 | 26549 ft | 456 kts | 31° |
| 2026-05-05 19:41 | 49.92771 | 17.89767 | 25849 ft | 454 kts | 31° |
| 2026-05-05 19:42 | 49.95463 | 17.92329 | 25156 ft | 453 kts | 31° |
| 2026-05-05 19:42 | 49.98136 | 17.94877 | 24494 ft | 451 kts | 31° |
| 2026-05-05 19:42 | 50.00899 | 17.97157 | 23830 ft | 448 kts | 19° |
| 2026-05-05 19:42 | 50.03920 | 17.98113 | 23147 ft | 442 kts | 360° |
| 2026-05-05 19:43 | 50.06933 | 17.97479 | 22398 ft | 436 kts | 340° |
| 2026-05-05 19:43 | 50.09733 | 17.95726 | 21704 ft | 433 kts | 337° |
| 2026-05-05 19:43 | 50.12540 | 17.94079 | 21005 ft | 431 kts | 338° |
| 2026-05-05 19:43 | 50.15223 | 17.92045 | 20313 ft | 427 kts | 327° |
| 2026-05-05 19:44 | 50.17798 | 17.89763 | 19646 ft | 426 kts | 329° |
| 2026-05-05 19:44 | 50.20390 | 17.87549 | 18991 ft | 424 kts | 329° |
| 2026-05-05 19:44 | 50.22987 | 17.85360 | 18360 ft | 423 kts | 330° |
| 2026-05-05 19:44 | 50.25575 | 17.83195 | 17667 ft | 421 kts | 330° |
| 2026-05-05 19:45 | 50.28132 | 17.81061 | 16953 ft | 411 kts | 330° |
| 2026-05-05 19:45 | 50.30625 | 17.78979 | 16264 ft | 402 kts | 330° |
| 2026-05-05 19:45 | 50.33068 | 17.76939 | 15578 ft | 395 kts | 330° |
| 2026-05-05 19:45 | 50.35470 | 17.74929 | 14892 ft | 389 kts | 330° |
| 2026-05-05 19:46 | 50.37838 | 17.72946 | 14226 ft | 383 kts | 330° |
| 2026-05-05 19:46 | 50.40178 | 17.70985 | 13568 ft | 379 kts | 330° |
| 2026-05-05 19:46 | 50.42486 | 17.69048 | 12835 ft | 375 kts | 330° |
| 2026-05-05 19:46 | 50.44770 | 17.67129 | 12205 ft | 368 kts | 331° |
| 2026-05-05 19:47 | 50.46994 | 17.65258 | 11712 ft | 359 kts | 331° |
| 2026-05-05 19:47 | 50.49167 | 17.63429 | 11224 ft | 350 kts | 331° |
| 2026-05-05 19:47 | 50.51287 | 17.61642 | 10752 ft | 341 kts | 331° |
| 2026-05-05 19:47 | 50.53354 | 17.59898 | 10286 ft | 334 kts | 331° |
| 2026-05-05 19:48 | 50.55379 | 17.58188 | 9907 ft | 324 kts | 331° |
| 2026-05-05 19:48 | 50.57320 | 17.56547 | 9845 ft | 310 kts | 331° |
| 2026-05-05 19:48 | 50.59178 | 17.54975 | 9830 ft | 299 kts | 331° |
| 2026-05-05 19:48 | 50.61010 | 17.53423 | 9809 ft | 298 kts | 331° |
| 2026-05-05 19:49 | 50.62834 | 17.51876 | 9777 ft | 298 kts | 331° |
| 2026-05-05 19:49 | 50.64661 | 17.50327 | 9765 ft | 298 kts | 331° |
| 2026-05-05 19:49 | 50.66486 | 17.48777 | 9767 ft | 298 kts | 330° |
| 2026-05-05 19:49 | 50.68313 | 17.47224 | 9760 ft | 299 kts | 330° |
| 2026-05-05 19:50 | 50.70119 | 17.45688 | 9762 ft | 299 kts | 330° |
| 2026-05-05 19:50 | 50.71972 | 17.44110 | 9757 ft | 299 kts | 330° |
| 2026-05-05 19:50 | 50.73804 | 17.42549 | 9754 ft | 299 kts | 330° |
| 2026-05-05 19:50 | 50.75615 | 17.41004 | 9752 ft | 300 kts | 330° |
| 2026-05-05 19:51 | 50.77451 | 17.39437 | 9609 ft | 301 kts | 330° |
| 2026-05-05 19:51 | 50.79307 | 17.37850 | 9035 ft | 306 kts | 330° |
| 2026-05-05 19:51 | 50.81193 | 17.36237 | 8330 ft | 311 kts | 330° |
| 2026-05-05 19:51 | 50.83111 | 17.34595 | 7648 ft | 316 kts | 330° |
| 2026-05-05 19:52 | 50.85053 | 17.32931 | 6983 ft | 319 kts | 329° |
| 2026-05-05 19:52 | 50.87011 | 17.31252 | 6331 ft | 321 kts | 329° |
| 2026-05-05 19:52 | 50.88978 | 17.29564 | 5702 ft | 322 kts | 330° |
| 2026-05-05 19:52 | 50.90910 | 17.27906 | 5314 ft | 309 kts | 330° |
| 2026-05-05 19:53 | 50.92761 | 17.26313 | 4942 ft | 297 kts | 330° |
| 2026-05-05 19:53 | 50.94550 | 17.24774 | 4567 ft | 287 kts | 330° |
| 2026-05-05 19:53 | 50.96279 | 17.23284 | 4200 ft | 279 kts | 330° |
| 2026-05-05 19:53 | 50.97962 | 17.21833 | 3825 ft | 272 kts | 331° |
| 2026-05-05 19:54 | 50.99591 | 17.20418 | 3560 ft | 261 kts | 329° |
| 2026-05-05 19:54 | 51.00932 | 17.18583 | 3326 ft | 249 kts | 308° |
| 2026-05-05 19:54 | 51.01814 | 17.16293 | 3110 ft | 239 kts | 296° |
| 2026-05-05 19:54 | 51.02493 | 17.13994 | 3055 ft | 221 kts | 296° |
| 2026-05-05 19:55 | 51.03126 | 17.11871 | 3025 ft | 205 kts | 297° |
| 2026-05-05 19:55 | 51.03736 | 17.09870 | 3006 ft | 198 kts | 297° |
| 2026-05-05 19:55 | 51.04337 | 17.07917 | 2860 ft | 195 kts | 298° |
| 2026-05-05 19:55 | 51.04920 | 17.06014 | 2628 ft | 187 kts | 298° |
| 2026-05-05 19:56 | 51.05477 | 17.04198 | 2404 ft | 179 kts | 299° |
| 2026-05-05 19:56 | 51.06015 | 17.02445 | 2172 ft | 172 kts | 300° |
| 2026-05-05 19:56 | 51.06519 | 17.00801 | 1963 ft | 162 kts | 301° |
| 2026-05-05 19:56 | 51.07005 | 16.99218 | 1734 ft | 157 kts | 302° |
| 2026-05-05 19:57 | 51.07481 | 16.97668 | 1525 ft | 156 kts | 303° |
| 2026-05-05 19:57 | 51.07794 | 16.96643 | 1384 ft | 154 kts | 303° |
| 2026-05-05 19:57 | 51.08412 | 16.94629 | 1105 ft | 151 kts | 299° |
| 2026-05-05 19:57 | 51.08866 | 16.93117 | 874 ft | 152 kts | 300° |
| 2026-05-05 19:58 | 51.09328 | 16.91620 | 723 ft | 149 kts | 299° |
| 2026-05-05 19:58 | 51.09779 | 16.90158 | 492 ft | 147 kts | 300° |
| 2026-05-05 19:58 | 51.10211 | 16.88770 | 405 ft | 122 kts | 296° |
| 2026-05-05 19:58 | 51.10471 | 16.87920 | 405 ft | 56 kts | 296° |
| 2026-05-05 19:59 | 51.10611 | 16.87462 | 402 ft | 40 kts | 295° |
| 2026-05-05 19:59 | 51.10721 | 16.87251 | 406 ft | 19 kts | 8° |
| 2026-05-05 19:59 | 51.10836 | 16.87335 | 404 ft | 19 kts | 26° |
| 2026-05-05 19:59 | 51.10938 | 16.87419 | 404 ft | 11 kts | 42° |
| 2026-05-05 20:00 | 51.10987 | 16.87492 | 405 ft | 7 kts | 25° |
| 2026-05-05 20:00 | 51.11008 | 16.87508 | 404 ft | 2 kts | 26° |
| 2026-05-05 20:00 | 51.11012 | 16.87510 | 404 ft | 0 kts | 26° |